Time;durP1;ratioP1;P1;durP2;ratioP2;P2;SDS_P1;SDS_P2;PMS_P1;PMS_P2;Temp;Humidity;BMP_temperature;BMP_pressure;BME280_temperature;BME280_humidity;BME280_pressure;Samples;Min_cycle;Max_cycle;Signal;HPM_P1;HPM_P2
2021/08/30 00:01:53;;;;;;;6.47;5.97;;;16.60;1.00;;;;;;5046433;28;20292;-59
2021/08/30 00:04:19;;;;;;;7.40;6.30;;;16.60;1.00;;;;;;5050999;28;20210;-62
2021/08/30 00:06:45;;;;;;;6.50;6.00;;;16.50;1.00;;;;;;5050922;28;20269;-60
2021/08/30 00:09:11;;;;;;;8.30;5.70;;;16.50;1.00;;;;;;5051210;28;20185;-60
2021/08/30 00:11:37;;;;;;;6.23;5.63;;;16.60;1.00;;;;;;5051049;28;20184;-59
2021/08/30 00:14:03;;;;;;;8.80;5.70;;;16.60;1.00;;;;;;5050794;28;20467;-59
2021/08/30 00:16:28;;;;;;;6.33;5.83;;;16.70;1.00;;;;;;5050124;28;20670;-60
2021/08/30 00:18:54;;;;;;;7.80;6.30;;;16.70;1.00;;;;;;5048817;28;20443;-60
2021/08/30 00:21:19;;;;;;;7.20;6.50;;;16.70;1.00;;;;;;5046877;28;20193;-60
2021/08/30 00:23:45;;;;;;;6.60;6.00;;;16.60;1.00;;;;;;5046627;28;20211;-59
2021/08/30 00:26:11;;;;;;;6.60;5.90;;;16.70;1.00;;;;;;5046408;28;20699;-61
2021/08/30 00:28:37;;;;;;;6.57;5.97;;;16.60;1.00;;;;;;5044478;28;20264;-60
2021/08/30 00:31:02;;;;;;;8.77;6.30;;;16.60;1.00;;;;;;5045455;28;20276;-59
2021/08/30 00:33:28;;;;;;;7.07;6.47;;;16.60;1.00;;;;;;5046102;28;20501;-59
2021/08/30 00:35:53;;;;;;;7.27;6.67;;;16.60;1.00;;;;;;5044926;28;20234;-60
2021/08/30 00:38:19;;;;;;;6.73;6.13;;;16.60;1.00;;;;;;5044143;28;20225;-61
2021/08/30 00:40:44;;;;;;;7.53;6.80;;;16.50;1.00;;;;;;5045145;28;20200;-58
2021/08/30 00:43:10;;;;;;;6.63;6.07;;;16.40;1.00;;;;;;5044808;28;20205;-60
2021/08/30 00:45:36;;;;;;;7.13;6.43;;;16.50;1.00;;;;;;5045080;28;20180;-61
2021/08/30 00:48:01;;;;;;;6.67;6.13;;;16.50;1.00;;;;;;5045242;28;20192;-60
2021/08/30 00:50:28;;;;;;;7.50;6.03;;;16.50;1.00;;;;;;5044641;28;20188;-61
2021/08/30 00:52:54;;;;;;;7.50;6.90;;;16.50;1.00;;;;;;5044985;28;20611;-61
2021/08/30 00:55:20;;;;;;;6.67;6.07;;;16.50;1.00;;;;;;5044855;28;20440;-60
2021/08/30 00:57:46;;;;;;;7.60;6.37;;;16.50;1.00;;;;;;5049878;28;20501;-59
2021/08/30 01:00:13;;;;;;;7.17;6.47;;;16.50;1.00;;;;;;5049989;28;20794;-62
2021/08/30 01:02:41;;;;;;;7.30;6.60;;;16.50;1.00;;;;;;5058507;28;20997;-60
2021/08/30 01:05:08;;;;;;;6.83;6.23;;;16.50;1.00;;;;;;5059461;28;20429;-60
2021/08/30 01:07:37;;;;;;;6.60;6.00;;;16.50;1.00;;;;;;5049578;28;20866;-60
2021/08/30 01:10:16;;;;;;;8.30;7.30;;;16.50;1.00;;;;;;5047632;28;20439;-61
2021/08/30 01:13:20;;;;;;;7.70;7.10;;;16.40;1.00;;;;;;5044321;28;20442;-60
2021/08/30 01:15:47;;;;;;;7.40;6.70;;;16.40;1.00;;;;;;5042183;28;21194;-60
2021/08/30 01:18:22;;;;;;;7.33;6.63;;;16.40;1.00;;;;;;5044735;28;20973;-59
2021/08/30 01:21:15;;;;;;;7.90;7.13;;;16.60;1.00;;;;;;5044440;28;20527;-60
2021/08/30 01:23:45;;;;;;;7.33;6.40;;;16.50;1.00;;;;;;5044863;28;20469;-60
2021/08/30 01:26:13;;;;;;;7.47;6.77;;;16.50;1.00;;;;;;5045155;28;20448;-59
2021/08/30 01:29:05;;;;;;;7.53;6.87;;;16.40;1.00;;;;;;5044485;28;20446;-60
2021/08/30 01:31:47;;;;;;;7.60;6.90;;;16.30;1.00;;;;;;5044056;28;20461;-60
2021/08/30 01:34:14;;;;;;;8.33;7.53;;;16.30;1.00;;;;;;5044039;28;20856;-60
2021/08/30 01:36:41;;;;;;;8.53;7.63;;;16.30;1.00;;;;;;5044628;28;20448;-61
2021/08/30 01:39:10;;;;;;;7.83;7.13;;;16.30;1.00;;;;;;5044525;28;20455;-60
2021/08/30 01:41:37;;;;;;;8.27;7.50;;;16.20;1.00;;;;;;5044441;28;20452;-60
2021/08/30 01:44:05;;;;;;;8.13;7.43;;;16.10;1.00;;;;;;5049569;28;20503;-60
2021/08/30 01:46:31;;;;;;;8.40;7.60;;;16.00;1.00;;;;;;5052940;28;20527;-61
2021/08/30 01:48:57;;;;;;;8.83;7.50;;;15.90;1.00;;;;;;5053959;28;20434;-59
2021/08/30 01:51:25;;;;;;;8.37;7.60;;;15.90;1.00;;;;;;5053107;28;20488;-59
2021/08/30 01:53:53;;;;;;;9.93;8.80;;;15.90;1.00;;;;;;5053894;28;20930;-59
2021/08/30 01:56:20;;;;;;;8.33;7.63;;;15.80;1.00;;;;;;5051859;28;20543;-61
2021/08/30 02:01:32;;;;;;;9.13;8.23;;;15.70;1.00;;;;;;5049969;28;20956;-58
2021/08/30 02:03:57;;;;;;;7.50;6.80;;;15.70;1.00;;;;;;5047716;28;20466;-59
2021/08/30 02:06:23;;;;;;;7.10;6.50;;;15.70;1.00;;;;;;5047899;28;20437;-59
2021/08/30 02:08:49;;;;;;;8.00;7.30;;;15.60;1.00;;;;;;5047604;28;20671;-58
2021/08/30 02:11:20;;;;;;;7.73;7.03;;;15.60;1.00;;;;;;5048635;28;20194;-59
2021/08/30 02:13:46;;;;;;;7.37;6.63;;;15.60;1.00;;;;;;5047852;28;20505;-59
2021/08/30 02:16:12;;;;;;;7.27;6.57;;;15.50;1.00;;;;;;5047735;28;20831;-59
2021/08/30 02:18:54;;;;;;;7.93;7.20;;;15.40;1.00;;;;;;5047089;28;20515;-59
2021/08/30 02:21:26;;;;;;;7.40;6.70;;;15.40;1.00;;;;;;5048033;28;20539;-59
2021/08/30 02:24:08;;;;;;;7.43;6.60;;;15.40;1.00;;;;;;5048140;28;20473;-60
2021/08/30 02:26:57;;;;;;;7.30;6.63;;;15.30;1.00;;;;;;5047300;28;20972;-60
2021/08/30 02:29:26;;;;;;;10.93;7.13;;;15.20;1.00;;;;;;5046963;28;20536;-59
2021/08/30 02:31:58;;;;;;;6.83;6.30;;;15.20;1.00;;;;;;5055261;28;20451;-60
2021/08/30 02:34:27;;;;;;;7.00;6.33;;;15.20;1.00;;;;;;5045518;28;20485;-59
2021/08/30 02:36:54;;;;;;;8.00;7.20;;;15.10;1.00;;;;;;5046927;28;20427;-59
2021/08/30 02:39:20;;;;;;;7.23;6.63;;;15.10;1.00;;;;;;5047439;28;20417;-60
2021/08/30 02:41:48;;;;;;;7.60;6.90;;;15.20;1.00;;;;;;5047189;28;20468;-59
2021/08/30 02:44:15;;;;;;;7.50;6.73;;;15.10;1.00;;;;;;5047349;28;20979;-62
2021/08/30 02:46:43;;;;;;;7.43;6.30;;;15.10;1.00;;;;;;5046523;28;20479;-58
2021/08/30 02:49:09;;;;;;;6.90;6.20;;;15.00;1.00;;;;;;5047237;28;20414;-60
2021/08/30 02:51:37;;;;;;;10.13;7.03;;;15.00;1.00;;;;;;5045340;28;20450;-60
2021/08/30 02:54:03;;;;;;;7.50;6.80;;;15.00;1.00;;;;;;5047351;28;20506;-61
2021/08/30 02:56:29;;;;;;;8.17;7.33;;;14.90;1.00;;;;;;5046354;28;20967;-60
2021/08/30 02:58:56;;;;;;;7.17;6.47;;;14.90;1.00;;;;;;5047193;28;20483;-58
2021/08/30 03:01:22;;;;;;;6.47;5.83;;;14.90;3.80;;;;;;5047635;28;20443;-60
2021/08/30 03:03:48;;;;;;;6.93;6.33;;;14.90;5.00;;;;;;5046571;28;20468;-59
2021/08/30 03:06:15;;;;;;;6.63;6.10;;;14.80;7.50;;;;;;5047099;28;20446;-61
2021/08/30 03:08:40;;;;;;;7.17;6.47;;;14.80;11.10;;;;;;5046380;28;20514;-60
2021/08/30 03:11:09;;;;;;;6.13;5.53;;;14.80;14.40;;;;;;5045492;28;20546;-59
2021/08/30 03:13:39;;;;;;;7.00;6.30;;;14.80;14.40;;;;;;5046712;28;20268;-59
2021/08/30 03:16:05;;;;;;;7.40;5.70;;;14.70;12.00;;;;;;5046662;28;20455;-60
2021/08/30 03:18:32;;;;;;;7.63;6.93;;;14.80;14.40;;;;;;5046706;28;20462;-61
2021/08/30 03:20:59;;;;;;;6.13;5.63;;;14.70;14.30;;;;;;5046118;28;20244;-60
2021/08/30 03:23:27;;;;;;;7.03;6.37;;;14.70;13.70;;;;;;5046102;28;20469;-59
2021/08/30 03:25:54;;;;;;;7.07;6.37;;;14.80;16.70;;;;;;5046450;28;20508;-60
2021/08/30 03:28:22;;;;;;;6.80;6.20;;;14.90;13.30;;;;;;5046656;28;20446;-59
2021/08/30 03:30:49;;;;;;;6.80;6.20;;;15.00;12.70;;;;;;5046253;28;20518;-61
2021/08/30 03:33:16;;;;;;;7.90;6.40;;;15.10;8.60;;;;;;5046147;28;20499;-60
2021/08/30 03:35:43;;;;;;;7.60;6.90;;;15.20;4.80;;;;;;5046171;28;20479;-60
2021/08/30 03:38:11;;;;;;;8.90;6.90;;;15.40;1.20;;;;;;5045821;28;20447;-60
2021/08/30 03:40:38;;;;;;;8.90;7.87;;;15.40;1.60;;;;;;5046271;28;20451;-59
2021/08/30 03:43:05;;;;;;;12.00;10.50;;;15.50;1.00;;;;;;5045744;28;20493;-59
2021/08/30 03:45:31;;;;;;;7.60;6.90;;;15.50;1.00;;;;;;5045275;28;20979;-60
2021/08/30 03:47:58;;;;;;;9.40;8.07;;;15.60;1.00;;;;;;5044930;28;20429;-59
2021/08/30 03:50:24;;;;;;;8.20;7.40;;;15.60;1.00;;;;;;5045844;28;20452;-60
2021/08/30 03:52:50;;;;;;;9.07;8.23;;;;;;;;;;5046919;28;21044;-60
2021/08/30 03:55:15;;;;;;;9.50;8.10;;;15.60;1.00;;;;;;5045274;28;20439;-60
2021/08/30 03:57:41;;;;;;;12.50;10.60;;;15.80;1.00;;;;;;5045735;28;20479;-59
2021/08/30 04:00:09;;;;;;;11.40;10.20;;;15.80;1.00;;;;;;5046812;28;20186;-61
2021/08/30 04:02:37;;;;;;;15.63;11.10;;;15.80;1.00;;;;;;5044278;28;20193;-59
2021/08/30 04:05:04;;;;;;;16.23;11.80;;;15.80;1.00;;;;;;5045962;28;20885;-60
2021/08/30 04:07:31;;;;;;;14.27;12.00;;;15.70;1.00;;;;;;5045244;28;20452;-61
2021/08/30 04:09:57;;;;;;;18.60;12.30;;;15.80;1.00;;;;;;5047089;28;20443;-59
2021/08/30 04:12:24;;;;;;;15.63;11.37;;;15.70;1.00;;;;;;5045369;28;20928;-60
2021/08/30 04:14:50;;;;;;;15.83;11.50;;;15.60;1.00;;;;;;5046418;28;20437;-60
2021/08/30 04:17:17;;;;;;;21.77;12.30;;;15.20;5.90;;;;;;5045219;28;22111;-58
2021/08/30 04:19:42;;;;;;;22.23;12.93;;;15.40;13.70;;;;;;5049510;28;20447;-57
2021/08/30 04:22:08;;;;;;;16.23;11.90;;;15.50;10.60;;;;;;5045623;28;20465;-59
2021/08/30 04:24:34;;;;;;;15.43;11.57;;;15.50;13.20;;;;;;5045453;28;20213;-58
2021/08/30 04:26:59;;;;;;;20.17;11.70;;;15.50;10.60;;;;;;5045773;28;20314;-59
2021/08/30 04:29:27;;;;;;;23.10;14.10;;;15.50;13.40;;;;;;5045210;28;20214;-58
2021/08/30 04:31:52;;;;;;;28.93;12.53;;;15.50;14.80;;;;;;5045118;28;20204;-59
2021/08/30 04:34:22;;;;;;;20.10;11.83;;;15.60;13.20;;;;;;5044621;28;20474;-59
2021/08/30 04:36:48;;;;;;;23.97;12.63;;;15.50;7.90;;;;;;5045028;28;20187;-58
2021/08/30 04:39:13;;;;;;;17.00;12.40;;;15.40;12.90;;;;;;5045278;28;20444;-58
2021/08/30 04:41:39;;;;;;;14.30;12.00;;;15.40;15.10;;;;;;5045010;28;20462;-59
2021/08/30 04:44:05;;;;;;;16.77;12.13;;;15.40;14.70;;;;;;5044592;28;20214;-58
2021/08/30 04:46:30;;;;;;;12.57;11.27;;;15.40;15.10;;;;;;5045194;28;20651;-58
2021/08/30 04:48:56;;;;;;;14.33;10.80;;;15.40;15.60;;;;;;5046335;28;20177;-58
2021/08/30 04:51:22;;;;;;;13.90;11.43;;;15.30;18.90;;;;;;5047089;28;21450;-58
2021/08/30 04:53:47;;;;;;;19.53;11.57;;;15.40;24.00;;;;;;5044975;28;20254;-58
2021/08/30 04:56:13;;;;;;;15.20;10.70;;;15.50;25.60;;;;;;5044138;28;20241;-57
2021/08/30 04:58:38;;;;;;;12.90;11.50;;;15.50;24.40;;;;;;5042563;28;20192;-57
2021/08/30 05:01:04;;;;;;;14.90;11.13;;;15.60;21.80;;;;;;5046713;28;20641;-58
2021/08/30 05:03:30;;;;;;;16.73;11.57;;;15.60;18.70;;;;;;5044619;28;20674;-58
2021/08/30 05:05:55;;;;;;;18.63;11.40;;;15.60;18.40;;;;;;5048241;28;20651;-59
2021/08/30 05:08:20;;;;;;;17.73;10.90;;;15.70;15.40;;;;;;5050214;28;20185;-58
2021/08/30 05:10:46;;;;;;;14.10;10.70;;;15.60;17.50;;;;;;5049598;28;20189;-59
2021/08/30 05:13:12;;;;;;;12.93;10.90;;;15.60;17.20;;;;;;5049800;28;20184;-57
2021/08/30 05:15:37;;;;;;;12.50;10.83;;;15.70;14.00;;;;;;5049297;28;20193;-57
2021/08/30 05:18:03;;;;;;;11.97;10.80;;;15.70;13.40;;;;;;5049174;28;20181;-59
2021/08/30 05:20:28;;;;;;;12.77;10.63;;;15.60;13.90;;;;;;5049114;28;20196;-59
2021/08/30 05:22:54;;;;;;;11.10;9.93;;;15.70;11.80;;;;;;5047864;28;20206;-58
2021/08/30 05:25:19;;;;;;;13.67;11.83;;;15.70;11.70;;;;;;5043210;28;20188;-59
2021/08/30 05:27:48;;;;;;;12.90;11.10;;;15.70;12.20;;;;;;5038026;28;20181;-59
2021/08/30 05:30:14;;;;;;;12.23;10.77;;;15.80;10.30;;;;;;5047543;28;20177;-58
2021/08/30 05:32:39;;;;;;;12.83;11.20;;;15.70;14.90;;;;;;5047761;28;20510;-59
2021/08/30 05:35:05;;;;;;;21.03;10.87;;;15.80;16.20;;;;;;5049122;28;20254;-57
2021/08/30 05:37:31;;;;;;;11.87;10.30;;;15.80;15.00;;;;;;5043918;28;20232;-57
2021/08/30 05:39:56;;;;;;;15.10;10.87;;;15.80;11.30;;;;;;5044143;28;20823;-57
2021/08/30 05:42:22;;;;;;;13.40;11.30;;;15.70;15.00;;;;;;5028664;28;20709;-56
2021/08/30 05:44:47;;;;;;;12.03;10.83;;;15.80;18.20;;;;;;5044002;28;20359;-59
2021/08/30 05:47:15;;;;;;;12.13;10.93;;;15.80;17.10;;;;;;5044049;28;20231;-58
2021/08/30 05:49:41;;;;;;;12.53;10.00;;;15.90;9.90;;;;;;5043946;28;20585;-58
2021/08/30 05:52:07;;;;;;;12.93;11.00;;;15.90;13.10;;;;;;5044273;28;20530;-57
2021/08/30 05:54:32;;;;;;;12.40;11.10;;;15.90;12.40;;;;;;5043970;28;20665;-57
2021/08/30 05:56:58;;;;;;;13.13;11.10;;;16.00;8.30;;;;;;5043591;28;20190;-57
2021/08/30 05:59:23;;;;;;;13.33;11.93;;;16.10;5.80;;;;;;5043504;28;20554;-57
2021/08/30 06:01:49;;;;;;;13.30;10.90;;;16.20;1.00;;;;;;5043731;28;21434;-59
2021/08/30 06:04:14;;;;;;;12.87;11.47;;;16.20;1.00;;;;;;5043808;28;20213;-58
2021/08/30 06:06:40;;;;;;;11.70;10.50;;;16.30;1.00;;;;;;5043932;28;20191;-59
2021/08/30 06:09:05;;;;;;;11.50;10.40;;;16.40;1.00;;;;;;5044416;28;20187;-58
2021/08/30 06:11:31;;;;;;;11.97;10.60;;;16.60;1.00;;;;;;5043610;28;20699;-59
2021/08/30 06:13:56;;;;;;;11.97;10.77;;;16.70;1.00;;;;;;5043226;28;20189;-57
2021/08/30 06:16:22;;;;;;;10.90;9.87;;;16.80;1.00;;;;;;5043523;28;20199;-58
2021/08/30 06:18:48;;;;;;;10.47;9.57;;;17.10;1.00;;;;;;5044429;28;20191;-57
2021/08/30 06:21:13;;;;;;;12.03;10.77;;;17.40;1.00;;;;;;5043788;28;20198;-57
2021/08/30 06:23:39;;;;;;;10.60;9.60;;;17.60;1.00;;;;;;5043667;28;20218;-58
2021/08/30 06:26:04;;;;;;;11.33;10.23;;;17.80;1.00;;;;;;5043506;28;20183;-60
2021/08/30 06:28:30;;;;;;;11.27;9.40;;;17.90;1.00;;;;;;5043630;28;20188;-58
2021/08/30 06:30:55;;;;;;;10.77;9.67;;;18.10;1.00;;;;;;5043607;28;20722;-58
2021/08/30 06:33:21;;;;;;;10.30;8.90;;;18.10;1.00;;;;;;5047212;28;20204;-57
2021/08/30 06:35:47;;;;;;;10.23;9.23;;;18.10;1.00;;;;;;5046895;28;20222;-57
2021/08/30 06:38:14;;;;;;;11.43;10.07;;;18.50;1.00;;;;;;5047095;28;20183;-59
2021/08/30 06:40:40;;;;;;;10.80;9.70;;;18.00;1.00;;;;;;5047946;28;20195;-57
2021/08/30 06:43:05;;;;;;;15.50;11.37;;;18.00;1.00;;;;;;5048539;28;20947;-60
2021/08/30 06:45:32;;;;;;;11.70;10.57;;;17.90;1.00;;;;;;5050639;28;20181;-58
2021/08/30 06:47:57;;;;;;;11.93;10.00;;;17.80;1.00;;;;;;5052209;28;20266;-57
2021/08/30 06:50:24;;;;;;;11.67;10.27;;;17.70;1.00;;;;;;5051448;28;20533;-57
2021/08/30 06:52:49;;;;;;;10.90;9.80;;;17.60;1.00;;;;;;5053015;28;20640;-57
2021/08/30 06:55:15;;;;;;;13.67;10.67;;;17.50;1.00;;;;;;5050415;28;20430;-60
2021/08/30 06:57:40;;;;;;;11.83;10.63;;;17.40;1.00;;;;;;5052469;28;20211;-58
2021/08/30 07:00:07;;;;;;;12.03;10.90;;;17.30;1.00;;;;;;5051439;28;20193;-58
2021/08/30 07:02:33;;;;;;;11.10;10.10;;;17.20;1.00;;;;;;5050647;28;20216;-58
2021/08/30 07:04:59;;;;;;;14.63;10.17;;;17.30;1.00;;;;;;5047802;28;20420;-59
2021/08/30 07:07:25;;;;;;;11.00;9.30;;;17.40;1.00;;;;;;5046422;28;20429;-58
2021/08/30 07:09:51;;;;;;;12.30;10.40;;;17.50;1.00;;;;;;5046930;28;20709;-58
2021/08/30 07:12:16;;;;;;;13.27;10.30;;;17.60;1.00;;;;;;5046283;28;20465;-60
2021/08/30 07:14:42;;;;;;;13.73;10.50;;;17.90;1.00;;;;;;5046714;28;20956;-59
2021/08/30 07:17:07;;;;;;;11.57;10.03;;;18.40;1.00;;;;;;5046465;28;20758;-59
2021/08/30 07:19:33;;;;;;;10.13;9.10;;;18.70;1.00;;;;;;5046674;28;20192;-59
2021/08/30 07:21:59;;;;;;;12.27;10.90;;;18.90;1.00;;;;;;5045470;28;20729;-59
2021/08/30 07:24:24;;;;;;;15.80;12.33;;;18.90;1.00;;;;;;5046357;28;20202;-58
2021/08/30 07:26:50;;;;;;;18.60;12.77;;;18.80;1.00;;;;;;5045488;28;20278;-59
2021/08/30 07:29:16;;;;;;;14.53;11.83;;;18.70;1.00;;;;;;5046516;28;20186;-57
2021/08/30 07:31:42;;;;;;;13.60;11.63;;;18.40;1.00;;;;;;5046105;28;20195;-60
2021/08/30 07:34:07;;;;;;;14.57;11.63;;;18.40;1.00;;;;;;5045733;28;20448;-59
2021/08/30 07:36:33;;;;;;;13.40;11.80;;;18.80;1.00;;;;;;5045968;28;20693;-59
2021/08/30 07:39:00;;;;;;;22.70;12.40;;;19.30;1.00;;;;;;5045928;28;20212;-58
2021/08/30 07:41:27;;;;;;;11.63;10.47;;;19.70;1.00;;;;;;5046282;28;20494;-60
2021/08/30 07:43:53;;;;;;;11.83;10.60;;;20.00;1.00;;;;;;5043947;28;20459;-58
2021/08/30 07:46:20;;;;;;;13.00;11.47;;;19.90;1.00;;;;;;5046009;28;20453;-57
2021/08/30 07:48:47;;;;;;;12.10;10.77;;;20.10;1.00;;;;;;5045431;28;20446;-58
2021/08/30 07:51:12;;;;;;;12.63;9.70;;;20.50;1.00;;;;;;5046014;28;20433;-58
2021/08/30 07:53:40;;;;;;;9.73;8.83;;;20.60;1.00;;;;;;5045808;28;20425;-58
2021/08/30 07:56:06;;;;;;;10.40;9.40;;;20.80;1.00;;;;;;5045558;28;20242;-59
2021/08/30 07:58:31;;;;;;;14.50;9.93;;;20.80;1.00;;;;;;5045636;28;20425;-58
2021/08/30 08:00:57;;;;;;;10.37;9.27;;;20.80;1.00;;;;;;5045305;28;20469;-58
2021/08/30 08:03:23;;;;;;;9.63;8.63;;;20.80;1.00;;;;;;5045413;28;20256;-58
2021/08/30 08:05:48;;;;;;;9.93;8.90;;;20.80;1.00;;;;;;5046190;28;20185;-58
2021/08/30 08:08:14;;;;;;;9.93;8.93;;;20.80;1.00;;;;;;5044924;28;20219;-59
2021/08/30 08:10:40;;;;;;;9.03;8.17;;;20.70;1.00;;;;;;5044439;28;20265;-59
2021/08/30 08:13:06;;;;;;;13.10;7.80;;;20.60;1.00;;;;;;5049914;28;20275;-57
2021/08/30 08:15:31;;;;;;;7.83;7.03;;;20.40;1.00;;;;;;5051599;28;20642;-58
2021/08/30 08:17:57;;;;;;;8.83;7.93;;;20.30;1.00;;;;;;5050485;28;20542;-58
2021/08/30 08:20:22;;;;;;;8.10;7.40;;;20.20;1.00;;;;;;5051077;28;20191;-57
2021/08/30 08:22:48;;;;;;;7.67;6.97;;;20.30;1.00;;;;;;5049778;28;20195;-59
2021/08/30 08:25:14;;;;;;;6.60;5.50;;;20.20;1.00;;;;;;5045331;28;20200;-58
2021/08/30 08:27:40;;;;;;;9.67;8.67;;;20.10;1.00;;;;;;5044652;28;20204;-58
2021/08/30 08:30:06;;;;;;;6.17;5.57;;;20.00;1.00;;;;;;5045147;28;20184;-58
2021/08/30 08:32:32;;;;;;;7.10;6.40;;;19.90;1.00;;;;;;5043659;28;20453;-59
2021/08/30 08:34:58;;;;;;;8.13;7.43;;;19.70;1.00;;;;;;5045290;28;21550;-58
2021/08/30 08:37:24;;;;;;;9.27;8.37;;;20.00;1.00;;;;;;5045253;28;20447;-58
2021/08/30 08:39:49;;;;;;;8.67;7.83;;;20.00;1.00;;;;;;5045010;28;20207;-58
2021/08/30 08:42:15;;;;;;;8.67;7.77;;;20.10;1.00;;;;;;5044599;28;20211;-58
2021/08/30 08:44:41;;;;;;;9.17;8.27;;;20.10;1.00;;;;;;5045331;28;20215;-60
2021/08/30 08:47:07;;;;;;;7.73;7.03;;;20.20;1.00;;;;;;5044811;28;20751;-59
2021/08/30 08:49:33;;;;;;;7.70;7.00;;;20.30;1.00;;;;;;5045729;28;20271;-59
2021/08/30 08:52:01;;;;;;;8.07;7.37;;;20.40;1.00;;;;;;5045147;28;20528;-58
2021/08/30 08:54:29;;;;;;;7.27;6.57;;;20.10;1.00;;;;;;5044434;28;20206;-58
2021/08/30 08:56:54;;;;;;;8.77;7.87;;;20.70;1.00;;;;;;5044912;28;20446;-58
2021/08/30 08:59:20;;;;;;;7.00;6.17;;;21.00;1.00;;;;;;5042830;28;20450;-57
2021/08/30 09:01:57;;;;;;;6.07;5.50;;;21.50;1.00;;;;;;5044564;28;21442;-58
2021/08/30 09:04:33;;;;;;;5.60;5.10;;;21.80;1.00;;;;;;5044695;28;20212;-57
2021/08/30 09:07:12;;;;;;;6.00;5.30;;;21.90;1.00;;;;;;5044629;28;20448;-58
2021/08/30 09:09:39;;;;;;;6.10;5.50;;;21.90;1.00;;;;;;5044367;28;20493;-58
2021/08/30 09:12:26;;;;;;;5.70;5.23;;;21.70;1.00;;;;;;5044654;28;20477;-58
2021/08/30 09:14:52;;;;;;;6.60;6.00;;;21.60;1.00;;;;;;5044511;28;21635;-59
2021/08/30 09:17:17;;;;;;;5.53;5.13;;;21.90;1.00;;;;;;5044216;28;20426;-59
2021/08/30 09:19:43;;;;;;;5.83;5.20;;;22.30;1.00;;;;;;5045097;28;20191;-58
2021/08/30 09:22:10;;;;;;;5.17;4.67;;;22.70;1.00;;;;;;5045637;28;21484;-58
2021/08/30 09:24:37;;;;;;;5.70;5.20;;;23.10;1.00;;;;;;5044317;28;20263;-58
2021/08/30 09:27:08;;;;;;;4.50;4.20;;;23.50;1.00;;;;;;5044372;28;20526;-58
2021/08/30 09:29:37;;;;;;;5.00;4.50;;;23.80;1.00;;;;;;5044936;28;20501;-57
2021/08/30 09:32:04;;;;;;;5.23;4.60;;;24.40;1.00;;;;;;5044832;28;20435;-57
2021/08/30 09:34:51;;;;;;;5.53;4.97;;;24.60;1.00;;;;;;5044177;28;20532;-59
2021/08/30 09:37:23;;;;;;;5.13;4.63;;;24.20;1.00;;;;;;5044959;28;20450;-58
2021/08/30 09:39:55;;;;;;;6.43;5.90;;;24.50;1.00;;;;;;5044144;28;20429;-59
2021/08/30 09:42:21;;;;;;;7.93;7.23;;;24.60;1.00;;;;;;5043903;28;20520;-60
2021/08/30 09:44:46;;;;;;;7.47;6.77;;;24.20;1.00;;;;;;5043529;28;20478;-59
2021/08/30 09:47:14;;;;;;;9.03;7.87;;;23.70;1.00;;;;;;5043219;28;20409;-58
2021/08/30 09:49:41;;;;;;;9.03;8.23;;;23.00;1.00;;;;;;5043734;28;20382;-58
2021/08/30 09:52:08;;;;;;;9.47;8.47;;;22.50;1.00;;;;;;5044307;28;20483;-59
2021/08/30 09:54:34;;;;;;;8.17;7.37;;;22.30;1.00;;;;;;5042665;28;20955;-58
2021/08/30 09:57:01;;;;;;;7.07;6.47;;;22.20;1.00;;;;;;5044430;28;20436;-58
2021/08/30 09:59:28;;;;;;;6.70;6.00;;;22.10;1.00;;;;;;5043960;28;20561;-60
2021/08/30 10:01:54;;;;;;;7.27;6.57;;;22.10;1.00;;;;;;5042487;28;20442;-60
2021/08/30 10:04:21;;;;;;;7.30;6.40;;;22.10;1.00;;;;;;5045310;28;20438;-59
2021/08/30 10:06:49;;;;;;;8.70;6.93;;;21.80;1.00;;;;;;5047263;28;20446;-59
2021/08/30 10:09:17;;;;;;;6.90;6.23;;;21.80;1.00;;;;;;5053641;28;20454;-58
2021/08/30 10:11:45;;;;;;;6.57;6.00;;;21.80;1.00;;;;;;5053576;28;20729;-58
2021/08/30 10:14:17;;;;;;;5.90;5.40;;;22.10;1.00;;;;;;5052775;28;20516;-60
2021/08/30 10:16:43;;;;;;;5.50;4.60;;;;;;;;;;5053587;28;20441;-58
2021/08/30 10:19:09;;;;;;;5.10;4.70;;;22.00;1.00;;;;;;5052421;28;20417;-60
2021/08/30 10:21:46;;;;;;;4.57;4.17;;;21.90;1.00;;;;;;5054066;28;20504;-58
2021/08/30 10:24:17;;;;;;;5.40;4.90;;;21.90;1.00;;;;;;5052712;28;20199;-57
2021/08/30 10:26:45;;;;;;;4.67;4.17;;;22.20;1.00;;;;;;5052682;28;20454;-59
2021/08/30 10:29:11;;;;;;;4.47;4.07;;;21.70;1.00;;;;;;5047333;28;20627;-59
2021/08/30 10:31:45;;;;;;;3.80;3.50;;;21.90;1.00;;;;;;5047112;28;20952;-58
2021/08/30 10:34:23;;;;;;;4.47;3.80;;;22.10;1.00;;;;;;5047123;28;20974;-58
2021/08/30 10:36:49;;;;;;;4.67;3.70;;;22.70;1.00;;;;;;5047336;28;20488;-58
2021/08/30 10:39:14;;;;;;;3.57;3.27;;;22.60;1.00;;;;;;5048022;28;20478;-60
2021/08/30 10:41:44;;;;;;;4.60;3.37;;;22.90;1.00;;;;;;5047065;28;20200;-60
2021/08/30 10:44:13;;;;;;;4.13;3.80;;;23.20;1.00;;;;;;5046841;28;20669;-58
2021/08/30 10:46:41;;;;;;;4.73;3.80;;;23.60;1.00;;;;;;5048264;28;21273;-59
2021/08/30 10:49:17;;;;;;;3.93;3.63;;;24.20;1.00;;;;;;5046633;28;20442;-58
2021/08/30 10:51:44;;;;;;;3.67;3.37;;;24.20;1.00;;;;;;5047383;28;20413;-59
2021/08/30 10:54:13;;;;;;;3.57;3.27;;;24.60;1.00;;;;;;5047309;28;20770;-59
2021/08/30 10:56:40;;;;;;;3.73;3.43;;;24.50;1.00;;;;;;5052737;28;20451;-59
2021/08/30 10:59:07;;;;;;;3.70;3.40;;;24.20;1.00;;;;;;5052531;28;20410;-58
2021/08/30 11:01:34;;;;;;;3.53;3.23;;;24.00;1.00;;;;;;5051518;28;20961;-58
2021/08/30 11:04:00;;;;;;;3.53;3.23;;;24.20;1.00;;;;;;5051982;28;20434;-59
2021/08/30 11:06:26;;;;;;;3.67;3.37;;;23.70;1.00;;;;;;5052561;28;20467;-58
2021/08/30 11:08:52;;;;;;;3.33;3.00;;;23.60;1.00;;;;;;5052007;28;20319;-60
2021/08/30 11:11:26;;;;;;;3.00;2.80;;;23.40;1.00;;;;;;5050930;28;20180;-60
2021/08/30 11:14:02;;;;;;;4.00;3.40;;;23.60;1.00;;;;;;5059055;28;20471;-58
2021/08/30 11:16:29;;;;;;;2.97;2.77;;;23.70;1.00;;;;;;5052107;28;20475;-58
2021/08/30 11:18:57;;;;;;;3.60;2.87;;;24.00;1.00;;;;;;5051708;28;20703;-58
2021/08/30 11:21:36;;;;;;;3.73;2.93;;;24.00;1.00;;;;;;5048291;28;20422;-58
2021/08/30 11:24:03;;;;;;;3.03;2.73;;;24.10;1.00;;;;;;5046132;28;20462;-58
2021/08/30 11:26:28;;;;;;;3.27;2.90;;;24.50;1.00;;;;;;5044602;28;20421;-59
2021/08/30 11:28:56;;;;;;;2.90;2.70;;;25.00;1.00;;;;;;5046203;28;20409;-60
2021/08/30 11:31:23;;;;;;;2.87;2.67;;;25.40;1.00;;;;;;5046744;28;20184;-58
2021/08/30 11:33:48;;;;;;;3.00;2.80;;;25.30;1.00;;;;;;5046155;28;20489;-59
2021/08/30 11:36:16;;;;;;;3.30;2.50;;;24.90;1.00;;;;;;5046409;28;20438;-59
2021/08/30 11:38:51;;;;;;;3.00;2.80;;;24.10;1.00;;;;;;5046275;28;20211;-59
2021/08/30 11:41:17;;;;;;;2.97;2.23;;;23.40;1.00;;;;;;5046181;28;20420;-58
2021/08/30 11:43:42;;;;;;;2.67;2.47;;;23.30;1.00;;;;;;5046066;28;20478;-59
2021/08/30 11:46:08;;;;;;;3.00;2.80;;;23.40;1.00;;;;;;5045050;28;20198;-58
2021/08/30 11:48:34;;;;;;;2.60;2.40;;;23.20;1.00;;;;;;5046242;28;20658;-58
2021/08/30 11:51:04;;;;;;;2.60;2.40;;;23.40;1.00;;;;;;5046058;28;20196;-59
2021/08/30 11:53:29;;;;;;;2.60;2.40;;;23.70;1.00;;;;;;5045361;28;20191;-58
2021/08/30 11:55:55;;;;;;;2.40;2.20;;;23.90;1.00;;;;;;5045884;28;20454;-58
2021/08/30 11:58:30;;;;;;;2.73;2.53;;;24.10;1.00;;;;;;5045999;28;20199;-57
2021/08/30 12:01:03;;;;;;;2.77;2.57;;;24.40;1.00;;;;;;5045991;28;20656;-59
2021/08/30 12:03:43;;;;;;;3.53;2.60;;;24.20;1.00;;;;;;5045309;28;20482;-58
2021/08/30 12:06:17;;;;;;;3.17;2.87;;;24.30;1.00;;;;;;5045854;28;20451;-58
2021/08/30 12:08:56;;;;;;;3.50;3.20;;;24.30;1.00;;;;;;5045800;28;20875;-58
2021/08/30 12:11:23;;;;;;;3.23;2.93;;;24.20;1.00;;;;;;5044636;28;20443;-58
2021/08/30 12:16:25;;;;;;;3.37;3.07;;;23.80;1.00;;;;;;5045427;28;20460;-58
2021/08/30 12:18:53;;;;;;;3.57;3.27;;;23.50;1.00;;;;;;5045333;28;20475;-58
2021/08/30 12:21:30;;;;;;;3.63;3.33;;;23.70;1.00;;;;;;5044790;28;20450;-59
2021/08/30 12:23:56;;;;;;;4.03;3.43;;;23.80;1.00;;;;;;5045674;28;20584;-58
2021/08/30 12:26:22;;;;;;;2.80;2.60;;;23.70;1.00;;;;;;5045105;28;20885;-58
2021/08/30 12:28:53;;;;;;;2.90;2.70;;;23.50;1.00;;;;;;5044465;28;20416;-60
2021/08/30 12:31:29;;;;;;;2.80;2.60;;;23.70;1.00;;;;;;5045529;28;20421;-57
2021/08/30 12:34:03;;;;;;;3.80;2.83;;;24.10;1.00;;;;;;5045604;28;20812;-59
2021/08/30 12:36:29;;;;;;;3.10;2.83;;;24.50;1.00;;;;;;5045498;28;20779;-60
2021/08/30 12:38:54;;;;;;;2.60;2.40;;;24.70;1.00;;;;;;5044881;28;20428;-58
2021/08/30 12:41:20;;;;;;;2.37;2.03;;;24.40;1.00;;;;;;5044892;28;20180;-59
2021/08/30 12:43:47;;;;;;;3.53;2.23;;;24.20;1.00;;;;;;5044227;28;20319;-58
2021/08/30 12:46:14;;;;;;;2.30;2.10;;;24.10;1.00;;;;;;5045103;28;20177;-58
2021/08/30 12:48:39;;;;;;;2.33;2.13;;;23.90;1.00;;;;;;5044756;28;20580;-58
2021/08/30 12:51:06;;;;;;;3.00;2.33;;;24.00;1.00;;;;;;5044684;28;21006;-58
2021/08/30 12:53:32;;;;;;;2.83;2.07;;;24.00;1.00;;;;;;5043103;28;20534;-62
2021/08/30 12:55:58;;;;;;;1.73;1.63;;;23.80;1.00;;;;;;5044240;28;20450;-59
2021/08/30 12:58:24;;;;;;;1.70;1.60;;;23.70;1.00;;;;;;5044467;28;20243;-58